CCM51 LFKJ-LFML
Flight info
| Callsign | CCM51 |
|---|---|
| Flight time | 0h 38m |
| Altitude | 24000 |
| Route | TINOT |
| Aircraft | A320/M-SDE3FGHIRWY/LB1 |
Departure
| Time | 2026-04-29 13:08 |
|---|---|
| Airport | Ajaccio Napoléon Bonaparte airport (LFKJ) |
Arrival
| Time | 2026-04-29 13:46 |
|---|---|
| Airport | Marseille Provence Airport (LFML) |
| Time | Latitude | Longitude | Altitude | Speed | Heading |
|---|---|---|---|---|---|
| 2026-04-29 12:39 | 41.91901 | 8.79542 | 26 ft | 0 kts | 346° |
| 2026-04-29 12:40 | 41.91841 | 8.79508 | 26 ft | 0 kts | 346° |
| 2026-04-29 12:56 | 41.91825 | 8.79514 | 26 ft | 4 kts | 336° |
| 2026-04-29 12:56 | 41.91802 | 8.79533 | 26 ft | 4 kts | 327° |
| 2026-04-29 12:56 | 41.91790 | 8.79540 | 31 ft | 0 kts | 25° |
| 2026-04-29 13:01 | 41.91791 | 8.79541 | 29 ft | 1 kts | 25° |
| 2026-04-29 13:01 | 41.91818 | 8.79557 | 28 ft | 7 kts | 25° |
| 2026-04-29 13:02 | 41.91872 | 8.79591 | 29 ft | 9 kts | 25° |
| 2026-04-29 13:02 | 41.91933 | 8.79629 | 28 ft | 10 kts | 25° |
| 2026-04-29 13:02 | 41.91996 | 8.79668 | 26 ft | 10 kts | 25° |
| 2026-04-29 13:02 | 41.92064 | 8.79710 | 26 ft | 11 kts | 25° |
| 2026-04-29 13:03 | 41.92134 | 8.79754 | 30 ft | 11 kts | 25° |
| 2026-04-29 13:03 | 41.92203 | 8.79797 | 26 ft | 11 kts | 25° |
| 2026-04-29 13:03 | 41.92272 | 8.79840 | 26 ft | 11 kts | 25° |
| 2026-04-29 13:03 | 41.92343 | 8.79884 | 28 ft | 11 kts | 25° |
| 2026-04-29 13:04 | 41.92416 | 8.79930 | 26 ft | 12 kts | 25° |
| 2026-04-29 13:04 | 41.92504 | 8.79985 | 26 ft | 17 kts | 25° |
| 2026-04-29 13:04 | 41.92636 | 8.80067 | 23 ft | 25 kts | 25° |
| 2026-04-29 13:04 | 41.92801 | 8.80191 | 21 ft | 27 kts | 40° |
| 2026-04-29 13:05 | 41.92930 | 8.80365 | 21 ft | 25 kts | 46° |
| 2026-04-29 13:05 | 41.92967 | 8.80462 | 22 ft | 0 kts | 111° |
| 2026-04-29 13:06 | 41.92963 | 8.80475 | 23 ft | 3 kts | 111° |
| 2026-04-29 13:07 | 41.92949 | 8.80520 | 26 ft | 9 kts | 116° |
| 2026-04-29 13:07 | 41.92874 | 8.80546 | 28 ft | 16 kts | 193° |
| 2026-04-29 13:07 | 41.92758 | 8.80477 | 25 ft | 33 kts | 205° |
| 2026-04-29 13:07 | 41.92297 | 8.80191 | 21 ft | 109 kts | 205° |
| 2026-04-29 13:08 | 41.91445 | 8.79639 | 176 ft | 149 kts | 208° |
| 2026-04-29 13:08 | 41.90556 | 8.78955 | 901 ft | 148 kts | 225° |
| 2026-04-29 13:08 | 41.90018 | 8.77777 | 1590 ft | 147 kts | 245° |
| 2026-04-29 13:08 | 41.89535 | 8.76495 | 2157 ft | 165 kts | 240° |
| 2026-04-29 13:09 | 41.88914 | 8.75067 | 2601 ft | 189 kts | 240° |
| 2026-04-29 13:09 | 41.88192 | 8.73452 | 3000 ft | 215 kts | 239° |
| 2026-04-29 13:09 | 41.87377 | 8.71636 | 3502 ft | 240 kts | 238° |
| 2026-04-29 13:09 | 41.86473 | 8.69622 | 4069 ft | 262 kts | 238° |
| 2026-04-29 13:10 | 41.85520 | 8.67498 | 4985 ft | 268 kts | 238° |
| 2026-04-29 13:10 | 41.84568 | 8.65367 | 5999 ft | 271 kts | 238° |
| 2026-04-29 13:10 | 41.83604 | 8.63180 | 7029 ft | 272 kts | 241° |
| 2026-04-29 13:10 | 41.82933 | 8.60779 | 7990 ft | 277 kts | 257° |
| 2026-04-29 13:11 | 41.82803 | 8.58208 | 8938 ft | 282 kts | 274° |
| 2026-04-29 13:11 | 41.83240 | 8.55621 | 9908 ft | 286 kts | 289° |
| 2026-04-29 13:11 | 41.83978 | 8.53066 | 10498 ft | 303 kts | 290° |
| 2026-04-29 13:11 | 41.84759 | 8.50352 | 10809 ft | 326 kts | 290° |
| 2026-04-29 13:12 | 41.85591 | 8.47446 | 11457 ft | 337 kts | 290° |
| 2026-04-29 13:12 | 41.86435 | 8.44483 | 12271 ft | 341 kts | 290° |
| 2026-04-29 13:12 | 41.87284 | 8.41488 | 13124 ft | 345 kts | 290° |
| 2026-04-29 13:12 | 41.88138 | 8.38463 | 13928 ft | 348 kts | 290° |
| 2026-04-29 13:13 | 41.88993 | 8.35441 | 14638 ft | 352 kts | 290° |
| 2026-04-29 13:13 | 41.89866 | 8.32354 | 15355 ft | 356 kts | 290° |
| 2026-04-29 13:13 | 41.90753 | 8.29205 | 16064 ft | 360 kts | 290° |
| 2026-04-29 13:13 | 41.91644 | 8.26034 | 16770 ft | 364 kts | 290° |
| 2026-04-29 13:14 | 41.92539 | 8.22856 | 17456 ft | 368 kts | 290° |
| 2026-04-29 13:14 | 41.93453 | 8.19604 | 18158 ft | 372 kts | 290° |
| 2026-04-29 13:14 | 41.94361 | 8.16366 | 18765 ft | 376 kts | 290° |
| 2026-04-29 13:14 | 41.95289 | 8.13045 | 19373 ft | 379 kts | 290° |
| 2026-04-29 13:15 | 41.96222 | 8.09710 | 19988 ft | 383 kts | 290° |
| 2026-04-29 13:15 | 41.97165 | 8.06342 | 20601 ft | 386 kts | 290° |
| 2026-04-29 13:15 | 41.98112 | 8.02948 | 21213 ft | 390 kts | 290° |
| 2026-04-29 13:15 | 41.99067 | 7.99524 | 21809 ft | 393 kts | 290° |
| 2026-04-29 13:16 | 42.00029 | 7.96060 | 22394 ft | 397 kts | 289° |
| 2026-04-29 13:16 | 42.00986 | 7.92603 | 22939 ft | 401 kts | 289° |
| 2026-04-29 13:16 | 42.01963 | 7.89070 | 23483 ft | 405 kts | 289° |
| 2026-04-29 13:16 | 42.02949 | 7.85506 | 23872 ft | 408 kts | 289° |
| 2026-04-29 13:17 | 42.03939 | 7.81935 | 23979 ft | 408 kts | 289° |
| 2026-04-29 13:17 | 42.04933 | 7.78358 | 24007 ft | 407 kts | 289° |
| 2026-04-29 13:17 | 42.05920 | 7.74788 | 24005 ft | 407 kts | 289° |
| 2026-04-29 13:17 | 42.06906 | 7.71213 | 24007 ft | 407 kts | 289° |
| 2026-04-29 13:18 | 42.07888 | 7.67642 | 24015 ft | 407 kts | 289° |
| 2026-04-29 13:18 | 42.08869 | 7.64074 | 24010 ft | 406 kts | 289° |
| 2026-04-29 13:18 | 42.09850 | 7.60494 | 24010 ft | 406 kts | 289° |
| 2026-04-29 13:18 | 42.10822 | 7.56932 | 24007 ft | 407 kts | 289° |
| 2026-04-29 13:19 | 42.11797 | 7.53362 | 24010 ft | 408 kts | 289° |
| 2026-04-29 13:19 | 42.12784 | 7.49757 | 24015 ft | 408 kts | 289° |
| 2026-04-29 13:19 | 42.13758 | 7.46188 | 24015 ft | 408 kts | 289° |
| 2026-04-29 13:19 | 42.14737 | 7.42600 | 24016 ft | 408 kts | 289° |
| 2026-04-29 13:20 | 42.15722 | 7.38989 | 24015 ft | 408 kts | 289° |
| 2026-04-29 13:20 | 42.16368 | 7.36614 | 24011 ft | 408 kts | 289° |
| 2026-04-29 13:20 | 42.17662 | 7.31838 | 24016 ft | 408 kts | 289° |
| 2026-04-29 13:20 | 42.18639 | 7.28231 | 24022 ft | 408 kts | 289° |
| 2026-04-29 13:21 | 42.19612 | 7.24644 | 24023 ft | 407 kts | 289° |
| 2026-04-29 13:21 | 42.20577 | 7.21082 | 24027 ft | 407 kts | 289° |
| 2026-04-29 13:21 | 42.21555 | 7.17466 | 24027 ft | 407 kts | 289° |
| 2026-04-29 13:21 | 42.22514 | 7.13903 | 24026 ft | 407 kts | 289° |
| 2026-04-29 13:22 | 42.23484 | 7.10296 | 24028 ft | 407 kts | 289° |
| 2026-04-29 13:22 | 42.24445 | 7.06717 | 24026 ft | 406 kts | 289° |
| 2026-04-29 13:22 | 42.25397 | 7.03162 | 24031 ft | 406 kts | 289° |
| 2026-04-29 13:22 | 42.26360 | 6.99558 | 24027 ft | 406 kts | 289° |
| 2026-04-29 13:23 | 42.27321 | 6.95963 | 24024 ft | 406 kts | 289° |
| 2026-04-29 13:23 | 42.28282 | 6.92365 | 24024 ft | 406 kts | 289° |
| 2026-04-29 13:23 | 42.29229 | 6.88819 | 24024 ft | 406 kts | 289° |
| 2026-04-29 13:23 | 42.30190 | 6.85211 | 24024 ft | 406 kts | 289° |
| 2026-04-29 13:24 | 42.31146 | 6.81611 | 24028 ft | 406 kts | 289° |
| 2026-04-29 13:24 | 42.32099 | 6.78007 | 24023 ft | 407 kts | 288° |
| 2026-04-29 13:24 | 42.33051 | 6.74407 | 24021 ft | 407 kts | 288° |
| 2026-04-29 13:24 | 42.33997 | 6.70837 | 24024 ft | 406 kts | 288° |
| 2026-04-29 13:25 | 42.34953 | 6.67227 | 24020 ft | 406 kts | 288° |
| 2026-04-29 13:25 | 42.36850 | 6.60043 | 24021 ft | 407 kts | 288° |
| 2026-04-29 13:25 | 42.37802 | 6.56432 | 24015 ft | 407 kts | 289° |
| 2026-04-29 13:26 | 42.38752 | 6.52813 | 24018 ft | 407 kts | 288° |
| 2026-04-29 13:26 | 42.39688 | 6.49236 | 24015 ft | 407 kts | 288° |
| 2026-04-29 13:26 | 42.40638 | 6.45603 | 24015 ft | 407 kts | 288° |
| 2026-04-29 13:26 | 42.41585 | 6.41966 | 24015 ft | 407 kts | 288° |
| 2026-04-29 13:27 | 42.42518 | 6.38385 | 24021 ft | 407 kts | 288° |
| 2026-04-29 13:27 | 42.43466 | 6.34751 | 24027 ft | 407 kts | 288° |
| 2026-04-29 13:27 | 42.44398 | 6.31179 | 24023 ft | 406 kts | 288° |
| 2026-04-29 13:27 | 42.45341 | 6.27558 | 24024 ft | 407 kts | 288° |
| 2026-04-29 13:28 | 42.46283 | 6.23932 | 24022 ft | 406 kts | 289° |
| 2026-04-29 13:28 | 42.47222 | 6.20315 | 24023 ft | 406 kts | 288° |
| 2026-04-29 13:28 | 42.48156 | 6.16699 | 24017 ft | 406 kts | 288° |
| 2026-04-29 13:28 | 42.49082 | 6.13113 | 24017 ft | 407 kts | 288° |
| 2026-04-29 13:29 | 42.50012 | 6.09504 | 24022 ft | 406 kts | 288° |
| 2026-04-29 13:29 | 42.50941 | 6.05887 | 24027 ft | 406 kts | 288° |
| 2026-04-29 13:29 | 42.51868 | 6.02270 | 24023 ft | 406 kts | 287° |
| 2026-04-29 13:29 | 42.52795 | 5.98648 | 24032 ft | 406 kts | 287° |
| 2026-04-29 13:30 | 42.53724 | 5.95016 | 24028 ft | 406 kts | 287° |
| 2026-04-29 13:30 | 42.54641 | 5.91435 | 24026 ft | 406 kts | 288° |
| 2026-04-29 13:30 | 42.55576 | 5.87791 | 24022 ft | 406 kts | 288° |
| 2026-04-29 13:30 | 42.56504 | 5.84164 | 23966 ft | 405 kts | 288° |
| 2026-04-29 13:31 | 42.57412 | 5.80612 | 23733 ft | 401 kts | 288° |
| 2026-04-29 13:31 | 42.58322 | 5.77047 | 23490 ft | 399 kts | 288° |
| 2026-04-29 13:31 | 42.59229 | 5.73483 | 23188 ft | 393 kts | 287° |
| 2026-04-29 13:31 | 42.60115 | 5.69987 | 22697 ft | 388 kts | 288° |
| 2026-04-29 13:32 | 42.60978 | 5.66570 | 22218 ft | 383 kts | 288° |
| 2026-04-29 13:32 | 42.61841 | 5.63152 | 21729 ft | 379 kts | 287° |
| 2026-04-29 13:32 | 42.62686 | 5.59807 | 21268 ft | 374 kts | 287° |
| 2026-04-29 13:32 | 42.63530 | 5.56464 | 20802 ft | 370 kts | 288° |
| 2026-04-29 13:33 | 42.64361 | 5.53164 | 20318 ft | 367 kts | 288° |
| 2026-04-29 13:33 | 42.65174 | 5.49930 | 19849 ft | 364 kts | 288° |
| 2026-04-29 13:33 | 42.65989 | 5.46684 | 19357 ft | 362 kts | 288° |
| 2026-04-29 13:33 | 42.66801 | 5.43438 | 18868 ft | 360 kts | 288° |
| 2026-04-29 13:34 | 42.67602 | 5.40221 | 18369 ft | 359 kts | 288° |
| 2026-04-29 13:34 | 42.68132 | 5.38096 | 18000 ft | 357 kts | 288° |
| 2026-04-29 13:34 | 42.69054 | 5.34971 | 17486 ft | 355 kts | 296° |
| 2026-04-29 13:34 | 42.70404 | 5.32176 | 16990 ft | 353 kts | 307° |
| 2026-04-29 13:35 | 42.72148 | 5.29813 | 16378 ft | 357 kts | 319° |
| 2026-04-29 13:35 | 42.74944 | 5.27386 | 15550 ft | 361 kts | 328° |
| 2026-04-29 13:35 | 42.76407 | 5.26225 | 15128 ft | 361 kts | 327° |
| 2026-04-29 13:35 | 42.78580 | 5.24495 | 14504 ft | 362 kts | 327° |
| 2026-04-29 13:36 | 42.80735 | 5.22778 | 13881 ft | 364 kts | 327° |
| 2026-04-29 13:36 | 42.82927 | 5.21032 | 13199 ft | 364 kts | 327° |
| 2026-04-29 13:36 | 42.85110 | 5.19290 | 12570 ft | 362 kts | 326° |
| 2026-04-29 13:36 | 42.87281 | 5.17553 | 11944 ft | 360 kts | 327° |
| 2026-04-29 13:37 | 42.89438 | 5.15825 | 11322 ft | 357 kts | 327° |
| 2026-04-29 13:37 | 42.91597 | 5.14166 | 10762 ft | 354 kts | 333° |
| 2026-04-29 13:37 | 42.93944 | 5.13213 | 10319 ft | 353 kts | 349° |
| 2026-04-29 13:37 | 42.96356 | 5.13187 | 10198 ft | 341 kts | 5° |
| 2026-04-29 13:38 | 42.98608 | 5.13988 | 10076 ft | 328 kts | 17° |
| 2026-04-29 13:38 | 43.00717 | 5.15035 | 9946 ft | 314 kts | 17° |
| 2026-04-29 13:38 | 43.02724 | 5.16036 | 9426 ft | 302 kts | 18° |
| 2026-04-29 13:38 | 43.04666 | 5.17007 | 8929 ft | 301 kts | 19° |
| 2026-04-29 13:39 | 43.06633 | 5.17991 | 8424 ft | 302 kts | 19° |
| 2026-04-29 13:39 | 43.08586 | 5.18968 | 8109 ft | 296 kts | 19° |
| 2026-04-29 13:39 | 43.10513 | 5.19933 | 7705 ft | 294 kts | 19° |
| 2026-04-29 13:39 | 43.12426 | 5.20893 | 7283 ft | 292 kts | 20° |
| 2026-04-29 13:40 | 43.14325 | 5.21848 | 6912 ft | 289 kts | 20° |
| 2026-04-29 13:40 | 43.16194 | 5.22788 | 6387 ft | 283 kts | 20° |
| 2026-04-29 13:40 | 43.18037 | 5.23716 | 5646 ft | 280 kts | 21° |
| 2026-04-29 13:40 | 43.19848 | 5.24627 | 4938 ft | 277 kts | 21° |
| 2026-04-29 13:41 | 43.21647 | 5.25533 | 4208 ft | 273 kts | 23° |
| 2026-04-29 13:41 | 43.23423 | 5.26428 | 3464 ft | 270 kts | 24° |
| 2026-04-29 13:41 | 43.25121 | 5.27280 | 3264 ft | 246 kts | 23° |
| 2026-04-29 13:41 | 43.26671 | 5.28052 | 3210 ft | 229 kts | 26° |
| 2026-04-29 13:42 | 43.28127 | 5.28784 | 3139 ft | 218 kts | 26° |
| 2026-04-29 13:42 | 43.29517 | 5.29488 | 3045 ft | 208 kts | 24° |
| 2026-04-29 13:42 | 43.30847 | 5.30161 | 2951 ft | 199 kts | 25° |
| 2026-04-29 13:42 | 43.32096 | 5.30792 | 2897 ft | 184 kts | 25° |
| 2026-04-29 13:43 | 43.33261 | 5.31382 | 2798 ft | 173 kts | 25° |
| 2026-04-29 13:43 | 43.34360 | 5.31909 | 2714 ft | 162 kts | 18° |
| 2026-04-29 13:43 | 43.35455 | 5.31976 | 2619 ft | 156 kts | 355° |
| 2026-04-29 13:43 | 43.36152 | 5.31714 | 2515 ft | 157 kts | 340° |
| 2026-04-29 13:44 | 43.37303 | 5.30545 | 2202 ft | 156 kts | 314° |
| 2026-04-29 13:44 | 43.38058 | 5.29475 | 1940 ft | 156 kts | 314° |
| 2026-04-29 13:44 | 43.38809 | 5.28415 | 1720 ft | 156 kts | 314° |
| 2026-04-29 13:44 | 43.39561 | 5.27357 | 1398 ft | 154 kts | 314° |
| 2026-04-29 13:45 | 43.40303 | 5.26316 | 1162 ft | 152 kts | 313° |
| 2026-04-29 13:45 | 43.41041 | 5.25262 | 899 ft | 152 kts | 312° |
| 2026-04-29 13:45 | 43.41765 | 5.24244 | 623 ft | 144 kts | 309° |
| 2026-04-29 13:45 | 43.42431 | 5.23280 | 358 ft | 138 kts | 306° |
| 2026-04-29 13:46 | 43.43092 | 5.22331 | 123 ft | 135 kts | 310° |
| 2026-04-29 13:46 | 43.43692 | 5.21446 | 38 ft | 108 kts | 313° |
| 2026-04-29 13:46 | 43.44096 | 5.20894 | 20 ft | 59 kts | 315° |
| 2026-04-29 13:46 | 43.44320 | 5.20590 | 19 ft | 36 kts | 312° |
| 2026-04-29 13:47 | 43.44471 | 5.20370 | 20 ft | 30 kts | 312° |
| 2026-04-29 13:47 | 43.44593 | 5.20206 | 18 ft | 10 kts | 348° |
| 2026-04-29 13:47 | 43.44631 | 5.20238 | 18 ft | 7 kts | 37° |
| 2026-04-29 13:47 | 43.44660 | 5.20272 | 18 ft | 0 kts | 46° |
| 2026-04-29 13:50 | 43.44673 | 5.20301 | 18 ft | 7 kts | 68° |
| 2026-04-29 13:50 | 43.44649 | 5.20381 | 18 ft | 12 kts | 132° |
| 2026-04-29 13:50 | 43.44574 | 5.20485 | 18 ft | 18 kts | 135° |
| 2026-04-29 13:51 | 43.44488 | 5.20606 | 18 ft | 18 kts | 135° |
| 2026-04-29 13:51 | 43.44401 | 5.20730 | 18 ft | 18 kts | 133° |
| 2026-04-29 13:51 | 43.44331 | 5.20834 | 18 ft | 14 kts | 129° |
| 2026-04-29 13:51 | 43.44283 | 5.20950 | 20 ft | 13 kts | 119° |
| 2026-04-29 13:52 | 43.44237 | 5.21035 | 21 ft | 10 kts | 132° |
| 2026-04-29 13:52 | 43.44198 | 5.21092 | 22 ft | 7 kts | 133° |
| 2026-04-29 13:52 | 43.44172 | 5.21128 | 23 ft | 4 kts | 135° |
| 2026-04-29 13:52 | 43.44155 | 5.21151 | 24 ft | 3 kts | 135° |
| 2026-04-29 13:53 | 43.44127 | 5.21190 | 25 ft | 8 kts | 133° |
| 2026-04-29 13:53 | 43.44080 | 5.21261 | 27 ft | 10 kts | 132° |
| 2026-04-29 13:53 | 43.44028 | 5.21337 | 29 ft | 13 kts | 135° |
| 2026-04-29 13:53 | 43.43954 | 5.21439 | 31 ft | 17 kts | 135° |
| 2026-04-29 13:54 | 43.43947 | 5.21591 | 34 ft | 20 kts | 46° |
| 2026-04-29 13:54 | 43.44045 | 5.21720 | 34 ft | 18 kts | 44° |
| 2026-04-29 13:54 | 43.44114 | 5.21830 | 34 ft | 16 kts | 75° |
| 2026-04-29 13:54 | 43.44059 | 5.21937 | 36 ft | 14 kts | 134° |
| 2026-04-29 13:55 | 43.44001 | 5.22018 | 38 ft | 9 kts | 135° |
| 2026-04-29 13:55 | 43.44011 | 5.22082 | 38 ft | 8 kts | 61° |
| 2026-04-29 13:55 | 43.44022 | 5.22112 | 38 ft | 1 kts | 61° |
| 2026-04-29 13:55 | 43.44023 | 5.22114 | 38 ft | 0 kts | 61° |